Time;durP1;ratioP1;P1;durP2;ratioP2;P2;SDS_P1;SDS_P2;PMS_P1;PMS_P2;Temp;Humidity;BMP_temperature;BMP_pressure;BME280_temperature;BME280_humidity;BME280_pressure;Samples;Min_cycle;Max_cycle;Signal;HPM_P1;HPM_P2
2022/02/25 00:02:12;;;;;;;0.70;0.70;;;1.90;99.90;;;;;;5055250;28;20228;-78
2022/02/25 00:04:38;;;;;;;1.10;0.97;;;1.80;99.90;;;;;;5055507;28;20261;-78
2022/02/25 00:07:04;;;;;;;0.80;0.80;;;1.80;99.90;;;;;;5060232;28;20174;-77
2022/02/25 00:09:29;;;;;;;0.83;0.80;;;1.70;99.90;;;;;;5056532;28;20542;-78
2022/02/25 00:11:55;;;;;;;1.53;1.20;;;1.80;99.90;;;;;;5056622;28;20171;-78
2022/02/25 00:14:21;;;;;;;1.10;0.80;;;1.70;99.90;;;;;;5056516;28;20177;-78
2022/02/25 00:16:48;;;;;;;1.67;0.90;;;1.90;99.90;;;;;;5056210;28;20197;-78
2022/02/25 00:19:15;;;;;;;1.03;1.00;;;1.80;99.90;;;;;;5054623;28;20183;-78
2022/02/25 00:21:41;;;;;;;1.60;1.13;;;1.90;99.90;;;;;;5053707;28;20222;-78
2022/02/25 00:24:06;;;;;;;1.23;1.13;;;1.80;99.90;;;;;;5053717;28;20186;-77
2022/02/25 00:26:32;;;;;;;1.27;1.03;;;1.70;99.90;;;;;;5052991;28;20217;-78
2022/02/25 00:28:58;;;;;;;2.03;0.97;;;1.70;99.90;;;;;;5055055;28;20202;-78
2022/02/25 00:31:23;;;;;;;1.17;1.00;;;1.70;99.90;;;;;;5054565;28;20206;-77
2022/02/25 00:33:49;;;;;;;0.87;0.87;;;1.80;99.90;;;;;;5061147;28;20271;-78
2022/02/25 00:36:15;;;;;;;0.87;0.87;;;1.70;99.90;;;;;;5054134;28;20205;-78
2022/02/25 00:38:40;;;;;;;0.97;0.97;;;1.60;99.90;;;;;;5053156;28;20177;-77
2022/02/25 00:41:06;;;;;;;0.73;0.73;;;1.50;99.90;;;;;;5054250;28;20632;-78
2022/02/25 00:43:32;;;;;;;1.57;1.00;;;1.50;99.90;;;;;;5052947;28;20582;-78
2022/02/25 00:45:58;;;;;;;0.90;0.70;;;1.50;99.90;;;;;;5054108;28;20177;-78
2022/02/25 00:48:23;;;;;;;0.70;0.70;;;1.50;99.90;;;;;;5053089;28;20179;-78
2022/02/25 00:50:49;;;;;;;0.80;0.80;;;1.50;99.90;;;;;;5053014;28;20203;-78
2022/02/25 00:53:15;;;;;;;0.43;0.43;;;1.50;99.90;;;;;;5054497;28;20253;-78
2022/02/25 00:55:40;;;;;;;0.60;0.60;;;1.50;99.90;;;;;;5054057;28;20547;-78
2022/02/25 00:58:06;;;;;;;1.23;0.50;;;1.50;99.90;;;;;;5054287;28;20347;-78
2022/02/25 01:00:32;;;;;;;0.60;0.60;;;1.30;99.90;;;;;;5053964;28;20247;-78
2022/02/25 01:02:57;;;;;;;0.80;0.70;;;1.40;99.90;;;;;;5052959;28;20182;-78
2022/02/25 01:05:23;;;;;;;0.67;0.67;;;1.30;99.90;;;;;;5052431;28;20203;-78
2022/02/25 01:07:49;;;;;;;0.80;0.73;;;1.30;99.90;;;;;;5054591;28;20241;-78
2022/02/25 01:10:17;;;;;;;0.80;0.57;;;1.30;99.90;;;;;;5054202;28;20272;-78
2022/02/25 01:12:45;;;;;;;0.73;0.53;;;1.20;99.90;;;;;;5053982;28;20648;-78
2022/02/25 01:15:11;;;;;;;0.67;0.60;;;1.20;99.90;;;;;;5054247;28;20271;-78
2022/02/25 01:17:37;;;;;;;1.80;0.90;;;1.10;99.90;;;;;;5054931;28;20289;-78
2022/02/25 01:20:04;;;;;;;0.57;0.50;;;1.10;99.90;;;;;;5058382;28;20500;-78
2022/02/25 01:22:30;;;;;;;0.70;0.60;;;1.10;99.90;;;;;;5058387;28;20181;-78
2022/02/25 01:24:55;;;;;;;0.67;0.67;;;1.10;99.90;;;;;;5058146;28;20180;-78
2022/02/25 01:27:21;;;;;;;0.60;0.60;;;1.10;99.90;;;;;;5057090;28;20584;-78
2022/02/25 01:29:47;;;;;;;0.70;0.50;;;1.10;99.90;;;;;;5059413;28;20200;-78
2022/02/25 01:32:13;;;;;;;0.70;0.60;;;0.90;99.90;;;;;;5059096;28;20522;-78
2022/02/25 01:34:39;;;;;;;0.90;0.53;;;0.80;99.90;;;;;;5057807;28;20263;-78
2022/02/25 01:37:05;;;;;;;0.70;0.67;;;0.80;99.90;;;;;;5058999;28;20213;-78
2022/02/25 01:39:31;;;;;;;1.03;0.73;;;0.70;99.90;;;;;;5057445;28;20173;-78
2022/02/25 01:41:57;;;;;;;1.07;0.70;;;0.70;99.90;;;;;;5058305;28;20260;-78
2022/02/25 01:44:25;;;;;;;1.37;0.70;;;0.80;99.90;;;;;;5056746;28;20701;-78
2022/02/25 01:46:53;;;;;;;1.20;0.67;;;0.70;99.90;;;;;;5058445;28;20170;-78
2022/02/25 01:49:19;;;;;;;1.77;0.80;;;0.60;99.90;;;;;;5058577;28;20175;-78
2022/02/25 01:51:47;;;;;;;1.87;0.70;;;0.60;99.90;;;;;;5056622;28;20194;-78
2022/02/25 01:54:14;;;;;;;0.60;0.60;;;0.60;99.90;;;;;;5057783;28;20249;-78
2022/02/25 01:56:42;;;;;;;0.63;0.60;;;0.60;99.90;;;;;;5057187;28;20231;-78
2022/02/25 01:59:08;;;;;;;0.87;0.73;;;0.60;99.90;;;;;;5056746;28;20181;-78
2022/02/25 02:01:35;;;;;;;0.80;0.67;;;0.70;99.90;;;;;;5057342;28;20918;-78
2022/02/25 02:04:02;;;;;;;1.70;0.73;;;0.60;99.90;;;;;;5057867;28;20178;-77
2022/02/25 02:06:28;;;;;;;0.90;0.80;;;0.50;99.90;;;;;;5058622;28;20196;-78
2022/02/25 02:08:54;;;;;;;1.53;0.80;;;0.50;99.90;;;;;;5058491;28;20400;-78
2022/02/25 02:11:32;;;;;;;1.17;0.80;;;0.50;99.90;;;;;;5058162;28;20432;-78
2022/02/25 02:13:59;;;;;;;2.30;0.90;;;0.40;99.90;;;;;;5057406;28;20408;-78
2022/02/25 02:16:26;;;;;;;1.33;0.60;;;0.30;99.90;;;;;;5061224;28;20767;-77
2022/02/25 02:18:52;;;;;;;0.50;0.50;;;0.40;99.90;;;;;;5058342;28;20422;-77
2022/02/25 02:21:22;;;;;;;3.90;1.03;;;0.30;99.90;;;;;;5058272;28;20456;-78
2022/02/25 02:23:48;;;;;;;1.73;0.93;;;0.20;99.90;;;;;;5057005;28;20440;-77
2022/02/25 02:26:14;;;;;;;1.17;0.70;;;0.20;99.90;;;;;;5056646;28;20424;-78
2022/02/25 02:28:40;;;;;;;1.83;0.83;;;0.20;99.90;;;;;;5055158;28;20303;-78
2022/02/25 02:31:05;;;;;;;1.17;1.07;;;0.20;99.90;;;;;;5056853;28;20237;-78
2022/02/25 02:33:31;;;;;;;2.87;0.73;;;0.20;99.90;;;;;;5056548;28;20170;-78
2022/02/25 02:35:57;;;;;;;0.93;0.67;;;1.60;99.90;;;;;;5055142;28;20212;-77
2022/02/25 02:38:22;;;;;;;0.70;0.63;;;-0.10;99.90;;;;;;5056752;28;20173;-77
2022/02/25 02:40:48;;;;;;;0.90;0.70;;;0.00;99.90;;;;;;5062938;28;20197;-78
2022/02/25 02:43:14;;;;;;;2.03;1.10;;;0.00;99.90;;;;;;5056934;28;20636;-78
2022/02/25 02:45:40;;;;;;;1.27;0.70;;;0.00;99.90;;;;;;5056559;28;20174;-78
2022/02/25 02:48:06;;;;;;;1.13;0.80;;;0.00;99.90;;;;;;5055393;28;20177;-78
2022/02/25 02:50:32;;;;;;;3.53;1.13;;;-0.10;99.90;;;;;;5056419;28;20459;-78
2022/02/25 02:52:58;;;;;;;1.10;0.80;;;-0.20;99.90;;;;;;5055569;28;20180;-78
2022/02/25 02:55:23;;;;;;;0.70;0.70;;;-0.20;99.90;;;;;;5055228;28;20227;-78
2022/02/25 02:57:50;;;;;;;0.60;0.60;;;-0.20;99.90;;;;;;5056935;28;20534;-78
2022/02/25 03:00:16;;;;;;;1.13;0.80;;;-0.20;99.90;;;;;;5055427;28;20233;-78
2022/02/25 03:02:42;;;;;;;5.07;0.70;;;-0.20;99.90;;;;;;5055250;28;20435;-78
2022/02/25 03:05:09;;;;;;;2.07;0.93;;;-0.30;99.90;;;;;;5056597;28;20225;-78
2022/02/25 03:07:35;;;;;;;1.27;0.70;;;-0.50;99.90;;;;;;5056596;28;20490;-78
2022/02/25 03:10:01;;;;;;;0.90;0.70;;;-0.40;99.90;;;;;;5056433;28;20487;-78
2022/02/25 03:12:28;;;;;;;1.07;0.80;;;-0.50;99.90;;;;;;5056724;28;20207;-78
2022/02/25 03:14:54;;;;;;;0.83;0.80;;;-0.40;99.90;;;;;;5054985;28;20428;-78
2022/02/25 03:17:20;;;;;;;1.73;0.60;;;-0.60;99.90;;;;;;5056202;28;20473;-78
2022/02/25 03:19:46;;;;;;;1.20;1.10;;;-0.60;99.90;;;;;;5056159;28;20816;-78
2022/02/25 03:22:12;;;;;;;0.90;0.80;;;-0.60;99.90;;;;;;5054809;28;20746;-78
2022/02/25 03:24:37;;;;;;;3.33;0.90;;;-0.60;99.90;;;;;;5054892;28;20276;-77
2022/02/25 03:27:03;;;;;;;0.50;0.50;;;-0.60;99.90;;;;;;5056341;28;20170;-78
2022/02/25 03:29:29;;;;;;;2.03;0.80;;;-0.70;99.90;;;;;;5056251;28;20178;-78
2022/02/25 03:31:54;;;;;;;1.23;0.70;;;-0.60;99.90;;;;;;5055840;28;20636;-78
2022/02/25 03:34:20;;;;;;;1.90;0.70;;;-0.70;99.90;;;;;;5055938;28;20177;-77
2022/02/25 03:36:46;;;;;;;0.50;0.50;;;-0.70;99.90;;;;;;5056000;28;20201;-77
2022/02/25 03:39:11;;;;;;;1.20;1.07;;;-0.60;99.90;;;;;;5055732;28;20173;-78
2022/02/25 03:41:37;;;;;;;0.83;0.80;;;-0.70;99.90;;;;;;5054670;28;20546;-78
2022/02/25 03:44:03;;;;;;;4.13;0.87;;;-0.60;99.90;;;;;;5055497;28;20192;-78
2022/02/25 03:46:29;;;;;;;0.77;0.77;;;-0.60;99.90;;;;;;5054964;28;20666;-78
2022/02/25 03:48:54;;;;;;;2.40;0.90;;;-0.50;99.90;;;;;;5055280;28;20499;-78
2022/02/25 03:51:21;;;;;;;0.90;0.90;;;-0.50;99.90;;;;;;5054788;28;20209;-78
2022/02/25 03:53:48;;;;;;;0.50;0.50;;;-0.40;99.90;;;;;;5055916;28;20181;-78
2022/02/25 03:56:15;;;;;;;0.80;0.80;;;-0.40;99.90;;;;;;5054201;28;20412;-78
2022/02/25 03:58:41;;;;;;;2.23;0.90;;;-0.30;99.90;;;;;;5055670;28;20458;-78
2022/02/25 04:01:07;;;;;;;3.23;1.10;;;-0.30;99.90;;;;;;5054097;28;20444;-78
2022/02/25 04:03:33;;;;;;;4.27;1.20;;;-0.30;99.90;;;;;;5054245;28;20416;-78
2022/02/25 04:05:59;;;;;;;0.90;0.73;;;-0.30;99.90;;;;;;5055091;28;20343;-78
2022/02/25 04:08:24;;;;;;;1.17;0.90;;;-0.30;99.90;;;;;;5055363;28;20174;-78
2022/02/25 04:10:50;;;;;;;1.47;0.90;;;-0.20;99.90;;;;;;5054190;28;20213;-78
2022/02/25 04:13:17;;;;;;;1.37;0.90;;;-0.20;99.90;;;;;;5055678;28;20180;-78
2022/02/25 04:15:43;;;;;;;1.03;0.87;;;-0.20;99.90;;;;;;5053681;28;20177;-78
2022/02/25 04:18:10;;;;;;;0.83;0.80;;;-0.30;99.90;;;;;;5054867;28;20458;-78
2022/02/25 04:20:37;;;;;;;2.03;0.80;;;-0.20;99.90;;;;;;5055462;28;20189;-78
2022/02/25 04:23:03;;;;;;;1.13;0.60;;;-0.20;99.90;;;;;;5058828;28;20423;-78
2022/02/25 04:25:28;;;;;;;1.53;0.70;;;-0.20;99.90;;;;;;5071174;28;20420;-77
2022/02/25 04:27:55;;;;;;;1.33;0.87;;;-0.20;99.90;;;;;;5073056;28;20189;-77
2022/02/25 04:30:21;;;;;;;1.77;0.87;;;-0.20;99.90;;;;;;5065684;28;20205;-78
2022/02/25 04:32:48;;;;;;;3.30;1.03;;;-0.20;99.90;;;;;;5054042;28;20933;-78
2022/02/25 04:35:14;;;;;;;2.00;0.97;;;-0.20;99.90;;;;;;5054069;28;20420;-77
2022/02/25 04:37:39;;;;;;;3.20;1.30;;;-0.20;99.90;;;;;;5055199;28;20406;-77
2022/02/25 04:40:06;;;;;;;3.60;0.87;;;-0.20;99.90;;;;;;5054400;28;20201;-78
2022/02/25 04:42:32;;;;;;;2.03;0.80;;;-0.10;99.90;;;;;;5055795;28;20632;-78
2022/02/25 04:44:57;;;;;;;1.27;0.90;;;-0.20;99.90;;;;;;5055807;28;20412;-77
2022/02/25 04:47:23;;;;;;;1.17;0.70;;;-0.10;99.90;;;;;;5059656;28;20178;-78
2022/02/25 04:49:49;;;;;;;0.97;0.63;;;-0.20;99.90;;;;;;5053339;28;20251;-78
2022/02/25 04:52:17;;;;;;;2.23;0.93;;;-0.20;99.90;;;;;;5054587;28;20257;-78
2022/02/25 04:54:43;;;;;;;1.63;1.00;;;-0.10;99.90;;;;;;5054070;28;20173;-78
2022/02/25 04:57:09;;;;;;;2.10;0.80;;;-0.20;99.90;;;;;;5053274;28;20502;-78
2022/02/25 04:59:35;;;;;;;2.47;0.77;;;-0.20;99.90;;;;;;5054656;28;20432;-78
2022/02/25 05:02:01;;;;;;;1.10;0.77;;;-0.20;99.90;;;;;;5053274;28;20181;-78
2022/02/25 05:04:26;;;;;;;3.00;0.80;;;-0.20;99.90;;;;;;5052902;28;20177;-78
2022/02/25 05:06:52;;;;;;;1.63;0.70;;;-0.30;99.90;;;;;;5054202;28;20690;-78
2022/02/25 05:09:18;;;;;;;1.43;1.00;;;-0.30;99.90;;;;;;5054454;28;20188;-77
2022/02/25 05:11:43;;;;;;;0.83;0.70;;;-0.30;99.90;;;;;;5053075;28;20256;-77
2022/02/25 05:20:15;;;;;;;2.97;0.80;;;-0.30;99.90;;;;;;5054404;28;20193;-77
2022/02/25 05:22:23;;;;;;;5.83;0.97;;;-0.30;99.90;;;;;;5054263;28;20423;-78
2022/02/25 05:24:48;;;;;;;1.27;1.10;;;-0.30;99.90;;;;;;5052411;28;20909;-77
2022/02/25 05:27:14;;;;;;;1.43;0.67;;;-0.30;99.90;;;;;;5053035;28;20177;-78
2022/02/25 05:29:40;;;;;;;2.03;0.97;;;-0.30;99.90;;;;;;5053984;28;20246;-77
2022/02/25 05:32:06;;;;;;;2.77;0.83;;;-0.30;99.90;;;;;;5053095;28;20181;-77
2022/02/25 05:34:32;;;;;;;0.67;0.67;;;-0.40;99.90;;;;;;5054124;28;20404;-77
2022/02/25 05:36:58;;;;;;;0.97;0.90;;;-0.40;99.90;;;;;;5054301;28;20408;-78
2022/02/25 05:39:23;;;;;;;2.33;1.13;;;-0.30;99.90;;;;;;5054180;28;20528;-78
2022/02/25 05:41:49;;;;;;;2.30;1.20;;;-0.30;99.90;;;;;;5053475;28;20181;-79
2022/02/25 05:44:14;;;;;;;2.93;0.90;;;-0.30;99.90;;;;;;5056248;28;20206;-77
2022/02/25 05:46:40;;;;;;;1.10;1.00;;;-0.30;99.90;;;;;;5054927;28;20205;-79
2022/02/25 05:49:06;;;;;;;2.40;1.00;;;-0.40;99.90;;;;;;5054578;28;20212;-78
2022/02/25 05:51:31;;;;;;;4.57;1.77;;;-0.40;99.90;;;;;;5054286;28;20682;-78
2022/02/25 05:53:58;;;;;;;2.13;1.00;;;-0.40;99.90;;;;;;5055048;28;20180;-78
2022/02/25 05:56:26;;;;;;;1.93;1.63;;;-0.40;99.90;;;;;;5054201;28;20173;-78
2022/02/25 05:58:52;;;;;;;3.17;1.10;;;-0.40;99.90;;;;;;5052906;28;20412;-79
2022/02/25 06:01:18;;;;;;;2.67;0.77;;;-0.40;99.90;;;;;;5054119;28;20925;-81
2022/02/25 06:03:44;;;;;;;2.13;0.80;;;-0.40;99.90;;;;;;5053862;28;20423;-79
2022/02/25 06:06:09;;;;;;;1.47;0.90;;;-0.40;99.90;;;;;;5057779;28;20600;-78
2022/02/25 06:08:35;;;;;;;2.53;0.97;;;-0.40;99.90;;;;;;5064010;28;20540;-79
2022/02/25 06:11:01;;;;;;;1.60;0.73;;;-0.40;99.90;;;;;;5063025;28;20293;-78
2022/02/25 06:13:27;;;;;;;3.60;1.10;;;-0.40;99.90;;;;;;5056353;28;20643;-79
2022/02/25 06:15:52;;;;;;;2.40;1.40;;;-0.50;99.90;;;;;;5057507;28;20216;-78
2022/02/25 06:18:18;;;;;;;7.00;1.60;;;-0.50;99.90;;;;;;5057272;28;20178;-78
2022/02/25 06:20:44;;;;;;;3.20;1.87;;;-0.50;99.90;;;;;;5055988;28;20208;-78
2022/02/25 06:23:10;;;;;;;4.90;1.67;;;-0.40;99.90;;;;;;5057251;28;20181;-78
2022/02/25 06:25:36;;;;;;;3.43;1.90;;;-0.50;99.90;;;;;;5057341;28;20416;-78
2022/02/25 06:28:03;;;;;;;4.43;1.30;;;-0.50;99.90;;;;;;5057307;28;20178;-78
2022/02/25 06:30:29;;;;;;;1.60;1.50;;;-0.50;99.90;;;;;;5056184;28;20455;-79
2022/02/25 06:32:55;;;;;;;5.20;2.07;;;-0.40;99.90;;;;;;5058305;28;20408;-78
2022/02/25 06:35:23;;;;;;;4.83;1.73;;;-0.40;99.90;;;;;;5057236;28;20169;-78
2022/02/25 06:37:49;;;;;;;3.03;1.30;;;-0.40;99.90;;;;;;5057253;28;20174;-79
2022/02/25 06:40:14;;;;;;;1.80;1.43;;;-0.50;99.90;;;;;;5056629;28;20447;-78
2022/02/25 06:42:40;;;;;;;3.80;2.40;;;-0.50;99.90;;;;;;5056219;28;20205;-78
2022/02/25 06:45:06;;;;;;;2.23;1.10;;;-0.50;99.90;;;;;;5057118;28;20205;-78
2022/02/25 06:47:32;;;;;;;2.43;1.73;;;-0.50;99.90;;;;;;5057101;28;20416;-78
2022/02/25 06:49:58;;;;;;;2.77;1.70;;;-0.60;99.90;;;;;;5056916;28;20432;-78
2022/02/25 06:52:24;;;;;;;4.37;2.10;;;-0.50;99.90;;;;;;5061246;28;20170;-78
2022/02/25 06:54:50;;;;;;;5.17;2.00;;;-0.40;99.90;;;;;;5057716;28;20170;-79
2022/02/25 06:57:16;;;;;;;4.23;2.13;;;-0.40;99.90;;;;;;5056251;28;20403;-78
2022/02/25 06:59:42;;;;;;;10.73;4.27;;;-0.30;99.90;;;;;;5056122;28;20193;-78
2022/02/25 07:02:08;;;;;;;5.50;3.50;;;-0.30;99.90;;;;;;5056163;28;20169;-78
2022/02/25 07:04:35;;;;;;;6.90;2.97;;;-0.10;99.90;;;;;;5057135;28;20177;-78
2022/02/25 07:07:00;;;;;;;3.83;1.70;;;0.10;99.90;;;;;;5056822;28;20408;-78
2022/02/25 07:09:26;;;;;;;3.77;1.83;;;0.00;99.90;;;;;;5056001;28;20427;-78
2022/02/25 07:11:51;;;;;;;3.53;1.50;;;0.00;99.90;;;;;;5057193;28;20194;-79
2022/02/25 07:14:17;;;;;;;4.70;1.83;;;0.10;99.90;;;;;;5055911;28;20178;-78
2022/02/25 07:16:44;;;;;;;3.17;1.80;;;0.10;99.90;;;;;;5056315;28;20249;-78
2022/02/25 07:19:09;;;;;;;4.63;2.23;;;0.10;99.90;;;;;;5054295;28;20173;-78
2022/02/25 07:21:35;;;;;;;6.67;1.90;;;0.10;99.90;;;;;;5056646;28;20511;-78
2022/02/25 07:24:01;;;;;;;3.43;2.13;;;0.20;99.90;;;;;;5055274;28;20201;-78
2022/02/25 07:26:27;;;;;;;3.03;1.43;;;0.10;99.90;;;;;;5055523;28;20181;-78
2022/02/25 07:28:52;;;;;;;4.30;1.63;;;0.10;99.90;;;;;;5056964;28;20173;-78
2022/02/25 07:31:18;;;;;;;4.63;1.83;;;0.20;99.90;;;;;;5056474;28;20209;-78
2022/02/25 07:33:44;;;;;;;4.67;1.80;;;0.30;99.90;;;;;;5057289;28;20576;-78
2022/02/25 07:36:09;;;;;;;3.47;1.60;;;0.30;99.90;;;;;;5055305;28;20199;-78
2022/02/25 07:38:35;;;;;;;2.67;1.13;;;0.30;99.90;;;;;;5057127;28;20185;-79
2022/02/25 07:41:00;;;;;;;3.77;1.60;;;0.20;99.90;;;;;;5055806;28;20231;-78
2022/02/25 07:43:26;;;;;;;2.80;1.57;;;0.50;99.90;;;;;;5057008;28;20260;-79
2022/02/25 07:45:52;;;;;;;3.50;2.00;;;0.50;99.90;;;;;;5056600;28;20180;-79
2022/02/25 07:48:19;;;;;;;2.23;1.33;;;0.50;99.90;;;;;;5057460;28;20291;-79
2022/02/25 07:50:46;;;;;;;2.23;1.37;;;0.60;99.90;;;;;;5055983;28;20562;-79
2022/02/25 07:53:13;;;;;;;2.93;1.67;;;0.50;99.90;;;;;;5056324;28;20433;-79
2022/02/25 07:55:39;;;;;;;4.20;1.97;;;0.50;99.90;;;;;;5057533;28;20458;-79
2022/02/25 07:58:05;;;;;;;3.93;1.40;;;0.70;99.90;;;;;;5058192;28;20419;-79
2022/02/25 08:00:31;;;;;;;4.10;1.40;;;1.00;99.90;;;;;;5057337;28;20798;-79
2022/02/25 08:03:04;;;;;;;2.77;2.17;;;1.20;99.90;;;;;;5061250;28;20428;-79
2022/02/25 08:05:31;;;;;;;2.87;1.73;;;2.20;99.90;;;;;;5057992;28;20432;-79
2022/02/25 08:07:59;;;;;;;6.20;2.67;;;3.20;99.90;;;;;;5061747;28;20489;-79
2022/02/25 08:10:24;;;;;;;2.33;1.90;;;4.10;99.90;;;;;;5076129;28;20466;-79
2022/02/25 08:12:51;;;;;;;2.03;1.33;;;4.40;99.90;;;;;;5075817;28;20432;-79
2022/02/25 08:15:17;;;;;;;3.93;1.67;;;3.50;99.90;;;;;;5066841;28;20822;-79
2022/02/25 08:17:43;;;;;;;2.83;1.57;;;2.30;99.90;;;;;;5057388;28;20178;-79
2022/02/25 08:20:10;;;;;;;1.90;1.40;;;1.60;99.90;;;;;;5057159;28;20202;-79
2022/02/25 08:22:36;;;;;;;3.80;1.60;;;1.50;99.90;;;;;;5058050;28;20601;-79
2022/02/25 08:25:02;;;;;;;6.33;2.20;;;2.10;99.90;;;;;;5056655;28;20654;-79
2022/02/25 08:27:28;;;;;;;5.03;2.23;;;2.50;99.90;;;;;;5055844;28;20201;-79
2022/02/25 08:29:54;;;;;;;3.80;1.77;;;3.00;99.90;;;;;;5054343;28;20431;-79
2022/02/25 08:32:19;;;;;;;18.33;9.63;;;3.70;99.90;;;;;;5056462;28;20169;-79
2022/02/25 08:34:45;;;;;;;4.67;2.13;;;4.30;99.90;;;;;;5055920;28;20206;-79
2022/02/25 08:37:11;;;;;;;4.17;1.80;;;4.90;99.90;;;;;;5056551;28;20626;-79
2022/02/25 08:39:37;;;;;;;4.27;2.60;;;4.30;99.90;;;;;;5055239;28;20204;-79
2022/02/25 08:42:03;;;;;;;3.23;1.93;;;3.60;99.90;;;;;;5055320;28;20182;-79
2022/02/25 08:44:28;;;;;;;3.87;1.70;;;3.50;99.90;;;;;;5055178;28;20650;-79
2022/02/25 08:46:54;;;;;;;3.43;1.67;;;3.90;99.90;;;;;;5056994;28;20182;-79
2022/02/25 08:49:20;;;;;;;2.33;1.93;;;4.50;99.90;;;;;;5055791;28;20182;-79
2022/02/25 08:51:47;;;;;;;2.03;1.83;;;4.70;99.90;;;;;;5055606;28;20214;-79
2022/02/25 08:54:16;;;;;;;3.93;2.30;;;5.20;99.90;;;;;;5057159;28;20206;-79
2022/02/25 08:56:42;;;;;;;3.40;2.13;;;5.40;99.90;;;;;;5057412;28;20167;-78
2022/02/25 08:59:08;;;;;;;4.10;1.50;;;5.40;99.90;;;;;;5061578;28;20229;-79
2022/02/25 09:01:34;;;;;;;3.23;1.60;;;5.50;99.90;;;;;;5057526;28;20195;-79
2022/02/25 09:04:01;;;;;;;5.97;1.50;;;5.60;99.90;;;;;;5057143;28;20630;-80
2022/02/25 09:06:29;;;;;;;3.27;1.47;;;5.40;99.90;;;;;;5055910;28;20664;-79
2022/02/25 09:08:55;;;;;;;2.53;1.70;;;5.30;99.90;;;;;;5057792;28;20174;-79
2022/02/25 09:11:22;;;;;;;3.83;1.30;;;5.40;99.90;;;;;;5057973;28;20205;-79
2022/02/25 09:13:48;;;;;;;2.97;1.37;;;5.20;99.90;;;;;;5055749;28;20200;-79
2022/02/25 09:16:14;;;;;;;2.17;1.67;;;4.60;99.90;;;;;;5056375;28;20640;-79
2022/02/25 09:18:40;;;;;;;2.87;1.73;;;4.80;99.90;;;;;;5057547;28;20208;-79
2022/02/25 09:21:05;;;;;;;6.63;2.43;;;5.10;99.90;;;;;;5058236;28;20651;-79
2022/02/25 09:23:31;;;;;;;12.13;5.47;;;4.80;99.90;;;;;;5058174;28;20203;-79
2022/02/25 09:25:58;;;;;;;7.40;3.27;;;5.00;99.90;;;;;;5055831;28;20197;-79
2022/02/25 09:28:24;;;;;;;7.87;3.53;;;4.80;99.90;;;;;;5056719;28;20169;-79
2022/02/25 09:30:51;;;;;;;10.63;5.23;;;4.70;99.90;;;;;;5056286;28;20217;-79
2022/02/25 09:33:17;;;;;;;3.40;1.67;;;5.00;99.90;;;;;;5058735;28;20647;-79
2022/02/25 09:35:43;;;;;;;5.57;2.27;;;5.10;99.90;;;;;;5056647;28;20174;-79
2022/02/25 09:38:09;;;;;;;3.77;1.87;;;4.90;99.90;;;;;;5056809;28;20170;-79
2022/02/25 09:40:36;;;;;;;5.20;2.10;;;5.20;99.90;;;;;;5059663;28;20221;-79
2022/02/25 09:43:04;;;;;;;7.40;3.67;;;4.80;99.90;;;;;;5058335;28;20642;-79
2022/02/25 09:45:29;;;;;;;5.30;2.80;;;4.20;99.90;;;;;;5059858;28;20184;-78
2022/02/25 09:47:55;;;;;;;7.47;3.23;;;3.50;99.90;;;;;;5057738;28;20256;-79
2022/02/25 09:50:23;;;;;;;10.50;6.30;;;2.70;99.90;;;;;;5057336;28;20205;-79
2022/02/25 09:52:50;;;;;;;5.07;3.40;;;2.40;99.90;;;;;;5058663;28;20295;-78
2022/02/25 09:55:25;;;;;;;6.50;2.50;;;2.30;99.90;;;;;;5057537;28;20624;-78
2022/02/25 09:57:52;;;;;;;3.60;2.53;;;2.10;99.90;;;;;;5057434;28;20239;-78
2022/02/25 10:00:18;;;;;;;5.07;2.20;;;1.90;99.90;;;;;;5057081;28;20293;-78
2022/02/25 10:02:48;;;;;;;4.97;2.27;;;2.20;99.90;;;;;;5057318;28;20228;-78
2022/02/25 10:05:16;;;;;;;3.57;1.70;;;2.90;99.90;;;;;;5056883;28;20193;-78
2022/02/25 10:07:42;;;;;;;5.90;2.20;;;3.10;99.90;;;;;;5057636;28;20186;-78
2022/02/25 10:10:10;;;;;;;2.03;1.50;;;3.30;99.90;;;;;;5057663;28;20717;-78
2022/02/25 10:12:37;;;;;;;2.63;1.70;;;3.90;99.90;;;;;;5057382;28;20173;-79
2022/02/25 10:15:03;;;;;;;3.97;1.93;;;4.40;99.90;;;;;;5056247;28;20273;-79
2022/02/25 10:17:29;;;;;;;4.83;2.70;;;4.50;99.90;;;;;;5058129;28;20182;-79
2022/02/25 10:20:03;;;;;;;2.73;1.60;;;5.10;99.90;;;;;;5057179;28;20203;-79
2022/02/25 10:22:30;;;;;;;6.00;2.83;;;5.80;99.90;;;;;;5058578;28;20174;-78
2022/02/25 10:25:02;;;;;;;12.70;6.07;;;6.00;99.90;;;;;;5058401;28;20204;-79
2022/02/25 10:27:36;;;;;;;5.40;2.30;;;6.10;99.90;;;;;;5057322;28;20181;-79
2022/02/25 10:30:20;;;;;;;3.03;1.70;;;6.10;99.90;;;;;;5057764;28;20207;-79
2022/02/25 10:32:51;;;;;;;3.87;2.33;;;6.00;99.90;;;;;;5060262;28;20506;-79
2022/02/25 10:35:33;;;;;;;4.53;2.33;;;6.20;99.90;;;;;;5057494;28;20604;-79
2022/02/25 10:38:19;;;;;;;3.07;1.37;;;6.20;99.90;;;;;;5058872;28;20265;-78
2022/02/25 10:40:45;;;;;;;1.77;1.00;;;5.80;99.90;;;;;;5059378;28;20193;-79
2022/02/25 10:43:17;;;;;;;2.03;1.30;;;5.20;99.90;;;;;;5057712;28;20243;-79
2022/02/25 10:45:44;;;;;;;3.67;1.50;;;5.50;99.90;;;;;;5057664;28;20178;-78
2022/02/25 10:48:12;;;;;;;3.37;1.13;;;5.90;99.90;;;;;;5056626;28;20584;-79
2022/02/25 10:50:47;;;;;;;4.73;1.47;;;5.80;99.90;;;;;;5056542;28;20606;-78
2022/02/25 10:53:13;;;;;;;3.67;1.30;;;5.30;99.90;;;;;;5059035;28;20165;-78
2022/02/25 10:55:39;;;;;;;4.00;1.87;;;5.30;99.90;;;;;;5059752;28;20180;-79
2022/02/25 10:58:04;;;;;;;4.10;1.40;;;5.60;99.90;;;;;;5056217;28;20174;-76
2022/02/25 11:00:30;;;;;;;3.37;1.50;;;5.60;99.90;;;;;;5055920;28;20255;-76
2022/02/25 11:03:01;;;;;;;3.77;1.40;;;5.60;99.90;;;;;;5056361;28;20177;-79
2022/02/25 11:05:32;;;;;;;6.37;3.00;;;5.50;99.90;;;;;;5059299;28;20190;-78
2022/02/25 11:08:03;;;;;;;2.13;1.60;;;6.20;99.90;;;;;;5058635;28;20177;-78
2022/02/25 11:10:33;;;;;;;2.70;1.30;;;6.20;99.90;;;;;;5062790;28;20286;-78
2022/02/25 11:13:04;;;;;;;1.83;1.20;;;6.20;99.90;;;;;;5059459;28;20184;-80
2022/02/25 11:15:32;;;;;;;3.20;1.33;;;6.10;99.90;;;;;;5058408;28;20596;-79
2022/02/25 11:17:58;;;;;;;4.30;1.63;;;5.70;99.90;;;;;;5057006;28;20239;-80
2022/02/25 11:20:35;;;;;;;2.00;1.40;;;5.40;99.90;;;;;;5057739;28;20197;-79
2022/02/25 11:23:03;;;;;;;2.03;1.43;;;5.70;99.90;;;;;;5057709;28;20178;-78
2022/02/25 11:25:31;;;;;;;2.13;1.30;;;5.80;99.90;;;;;;5057203;28;20224;-79
2022/02/25 11:27:59;;;;;;;3.93;1.73;;;6.10;99.90;;;;;;5058758;28;20174;-79
2022/02/25 11:30:27;;;;;;;6.37;1.70;;;6.40;99.90;;;;;;5056034;28;20605;-78
2022/02/25 11:33:00;;;;;;;5.83;1.60;;;6.60;99.90;;;;;;5060348;28;20178;-79
2022/02/25 11:35:34;;;;;;;2.77;1.27;;;7.00;99.90;;;;;;5060744;28;20243;-79
2022/02/25 11:38:09;;;;;;;1.60;1.23;;;6.60;99.90;;;;;;5058505;28;20215;-79
2022/02/25 11:40:53;;;;;;;2.70;1.40;;;6.10;99.90;;;;;;5057981;28;20263;-79
2022/02/25 11:43:39;;;;;;;4.20;2.10;;;6.50;99.90;;;;;;5058999;28;20161;-79
2022/02/25 11:46:07;;;;;;;5.13;2.10;;;6.50;99.90;;;;;;5057456;28;20204;-78
2022/02/25 11:49:13;;;;;;;3.93;1.40;;;6.00;99.90;;;;;;5059846;28;20177;-80
2022/02/25 11:51:40;;;;;;;12.90;6.00;;;6.50;99.90;;;;;;5053263;28;20641;-79
2022/02/25 11:54:21;;;;;;;2.57;1.27;;;6.90;99.90;;;;;;5056745;28;20604;-79
2022/02/25 11:57:08;;;;;;;4.17;1.83;;;6.90;99.90;;;;;;5056015;28;20185;-79
2022/02/25 11:59:33;;;;;;;3.67;2.07;;;7.70;99.90;;;;;;5055712;28;20185;-78
2022/02/25 12:02:14;;;;;;;2.60;1.30;;;7.70;99.90;;;;;;5055999;28;20227;-78
2022/02/25 12:04:45;;;;;;;3.33;1.90;;;7.60;99.70;;;;;;5058581;28;20183;-79
2022/02/25 12:07:31;;;;;;;3.87;1.70;;;7.80;99.70;;;;;;5057591;28;20169;-78
2022/02/25 12:10:02;;;;;;;2.80;1.37;;;7.50;99.60;;;;;;5055891;28;20622;-79
2022/02/25 12:12:27;;;;;;;2.33;1.57;;;7.60;96.40;;;;;;5057822;28;20161;-79
2022/02/25 12:15:14;;;;;;;5.03;2.37;;;7.80;95.90;;;;;;5059001;28;20663;-79
2022/02/25 12:17:42;;;;;;;3.10;1.40;;;7.60;96.70;;;;;;5056082;28;20174;-79
2022/02/25 12:20:19;;;;;;;5.27;1.60;;;7.70;94.30;;;;;;5056443;28;20205;-79
2022/02/25 12:23:01;;;;;;;4.00;1.43;;;6.90;96.40;;;;;;5057525;28;20749;-79
2022/02/25 12:25:42;;;;;;;5.10;1.33;;;6.20;96.60;;;;;;5056318;28;20658;-79
2022/02/25 12:28:28;;;;;;;6.70;2.63;;;5.60;97.50;;;;;;5057119;28;20698;-79
2022/02/25 12:30:58;;;;;;;4.93;1.57;;;5.20;98.90;;;;;;5055318;28;20215;-79
2022/02/25 12:33:34;;;;;;;4.43;1.57;;;5.10;99.30;;;;;;5055102;28;20174;-79
2022/02/25 12:36:06;;;;;;;2.80;1.40;;;4.90;98.50;;;;;;5055254;28;20205;-78
2022/02/25 12:38:38;;;;;;;7.17;3.20;;;5.10;98.60;;;;;;5055605;28;20203;-79
2022/02/25 12:41:32;;;;;;;1.33;1.00;;;5.10;98.00;;;;;;5055993;28;20663;-78
2022/02/25 12:44:01;;;;;;;3.13;1.30;;;4.80;97.40;;;;;;5058636;28;20222;-80
2022/02/25 12:46:34;;;;;;;3.80;1.43;;;5.60;99.90;;;;;;5057675;28;20187;-79
2022/02/25 12:49:01;;;;;;;5.00;1.60;;;5.50;97.20;;;;;;5058296;28;20170;-79
2022/02/25 12:51:27;;;;;;;2.30;1.40;;;5.10;97.70;;;;;;5055934;28;20287;-79
2022/02/25 12:54:20;;;;;;;8.80;2.17;;;5.70;97.50;;;;;;5055665;28;20183;-79
2022/02/25 12:56:51;;;;;;;4.13;1.63;;;6.30;96.70;;;;;;5054066;28;20584;-80
2022/02/25 12:59:19;;;;;;;3.30;1.40;;;6.60;95.50;;;;;;5055468;28;20239;-79
2022/02/25 13:01:52;;;;;;;3.10;1.13;;;6.70;93.80;;;;;;5056201;28;20199;-79